sensor_id;sensor_type;location;lat;lon;timestamp;pressure;altitude;pressure_sealevel;temperature;humidity
7668;BME280;3876;42.204;24.686;2023-09-19T00:00:17;99857.97;;;18.92;91.44
7668;BME280;3876;42.204;24.686;2023-09-19T00:02:46;99850.59;;;18.84;91.94
7668;BME280;3876;42.204;24.686;2023-09-19T00:05:15;99858.69;;;18.79;92.46
7668;BME280;3876;42.204;24.686;2023-09-19T00:07:41;99858.84;;;18.76;92.67
7668;BME280;3876;42.204;24.686;2023-09-19T00:10:10;99851.97;;;18.75;92.90
7668;BME280;3876;42.204;24.686;2023-09-19T00:12:37;99849.38;;;18.75;92.94
7668;BME280;3876;42.204;24.686;2023-09-19T00:15:04;99852.06;;;18.74;92.98
7668;BME280;3876;42.204;24.686;2023-09-19T00:17:32;99853.00;;;18.73;92.69
7668;BME280;3876;42.204;24.686;2023-09-19T00:20:00;99846.94;;;18.72;92.53
7668;BME280;3876;42.204;24.686;2023-09-19T00:22:40;99847.13;;;18.69;92.32
7668;BME280;3876;42.204;24.686;2023-09-19T00:25:08;99848.13;;;18.67;92.83
7668;BME280;3876;42.204;24.686;2023-09-19T00:27:37;99843.03;;;18.65;92.88
7668;BME280;3876;42.204;24.686;2023-09-19T00:30:08;99847.47;;;18.63;92.84
7668;BME280;3876;42.204;24.686;2023-09-19T00:32:40;99848.56;;;18.59;92.91
7668;BME280;3876;42.204;24.686;2023-09-19T00:35:07;99836.09;;;18.50;92.77
7668;BME280;3876;42.204;24.686;2023-09-19T00:37:35;99849.94;;;18.49;93.54
7668;BME280;3876;42.204;24.686;2023-09-19T00:40:03;99830.03;;;18.34;94.13
7668;BME280;3876;42.204;24.686;2023-09-19T00:42:31;99840.25;;;18.37;93.97
7668;BME280;3876;42.204;24.686;2023-09-19T00:44:59;99845.63;;;18.34;94.19
7668;BME280;3876;42.204;24.686;2023-09-19T00:47:29;99841.44;;;18.31;94.05
7668;BME280;3876;42.204;24.686;2023-09-19T00:49:56;99836.06;;;18.34;93.77
7668;BME280;3876;42.204;24.686;2023-09-19T00:52:24;99852.50;;;18.35;93.55
7668;BME280;3876;42.204;24.686;2023-09-19T00:54:50;99829.72;;;18.24;93.59
7668;BME280;3876;42.204;24.686;2023-09-19T00:57:19;99844.94;;;18.30;93.61
7668;BME280;3876;42.204;24.686;2023-09-19T00:59:48;99839.81;;;18.29;93.66
7668;BME280;3876;42.204;24.686;2023-09-19T01:02:16;99847.59;;;18.29;93.33
7668;BME280;3876;42.204;24.686;2023-09-19T01:04:44;99835.56;;;18.28;93.28
7668;BME280;3876;42.204;24.686;2023-09-19T01:07:11;99847.78;;;18.26;93.18
7668;BME280;3876;42.204;24.686;2023-09-19T01:09:40;99837.72;;;18.20;93.04
7668;BME280;3876;42.204;24.686;2023-09-19T01:12:08;99838.41;;;18.23;92.89
7668;BME280;3876;42.204;24.686;2023-09-19T01:14:44;99829.94;;;18.20;92.55
7668;BME280;3876;42.204;24.686;2023-09-19T01:17:24;99832.72;;;18.17;92.49
7668;BME280;3876;42.204;24.686;2023-09-19T01:20:17;99832.03;;;18.13;93.19
7668;BME280;3876;42.204;24.686;2023-09-19T01:23:10;99824.53;;;18.09;93.45
7668;BME280;3876;42.204;24.686;2023-09-19T01:26:05;99828.94;;;18.07;93.54
7668;BME280;3876;42.204;24.686;2023-09-19T01:28:51;99837.66;;;18.06;93.41
7668;BME280;3876;42.204;24.686;2023-09-19T01:31:23;99829.19;;;18.02;93.41
7668;BME280;3876;42.204;24.686;2023-09-19T01:33:59;99828.34;;;18.02;93.45
7668;BME280;3876;42.204;24.686;2023-09-19T01:36:31;99824.75;;;18.04;93.46
7668;BME280;3876;42.204;24.686;2023-09-19T01:38:59;99829.38;;;17.99;93.54
7668;BME280;3876;42.204;24.686;2023-09-19T01:41:41;99832.13;;;17.96;93.68
7668;BME280;3876;42.204;24.686;2023-09-19T01:44:19;99831.34;;;17.94;93.93
7668;BME280;3876;42.204;24.686;2023-09-19T01:46:50;99826.34;;;17.91;93.87
7668;BME280;3876;42.204;24.686;2023-09-19T01:49:25;99829.19;;;17.87;93.90
7668;BME280;3876;42.204;24.686;2023-09-19T01:52:02;99824.91;;;17.86;94.18
7668;BME280;3876;42.204;24.686;2023-09-19T01:54:33;99828.50;;;17.83;94.24
7668;BME280;3876;42.204;24.686;2023-09-19T01:57:08;99816.84;;;17.74;94.37
7668;BME280;3876;42.204;24.686;2023-09-19T01:59:50;99825.56;;;17.73;94.37
7668;BME280;3876;42.204;24.686;2023-09-19T02:02:21;99824.78;;;17.71;94.45
7668;BME280;3876;42.204;24.686;2023-09-19T02:04:49;99819.94;;;17.65;94.50
7668;BME280;3876;42.204;24.686;2023-09-19T02:07:16;99822.34;;;17.51;95.21
7668;BME280;3876;42.204;24.686;2023-09-19T02:09:43;99815.69;;;17.47;95.38
7668;BME280;3876;42.204;24.686;2023-09-19T02:12:10;99825.59;;;17.39;95.57
7668;BME280;3876;42.204;24.686;2023-09-19T02:14:37;99817.06;;;17.37;95.71
7668;BME280;3876;42.204;24.686;2023-09-19T02:17:04;99805.09;;;17.35;95.73
7668;BME280;3876;42.204;24.686;2023-09-19T02:19:33;99810.44;;;17.31;95.96
7668;BME280;3876;42.204;24.686;2023-09-19T02:22:00;99801.38;;;17.23;96.10
7668;BME280;3876;42.204;24.686;2023-09-19T02:24:28;99811.00;;;17.21;96.51
7668;BME280;3876;42.204;24.686;2023-09-19T02:26:56;99813.72;;;17.18;96.94
7668;BME280;3876;42.204;24.686;2023-09-19T02:29:24;99818.97;;;17.16;96.96
7668;BME280;3876;42.204;24.686;2023-09-19T02:31:52;99812.19;;;17.14;96.94
7668;BME280;3876;42.204;24.686;2023-09-19T02:34:21;99825.09;;;17.15;96.74
7668;BME280;3876;42.204;24.686;2023-09-19T02:36:50;99819.06;;;17.15;96.58
7668;BME280;3876;42.204;24.686;2023-09-19T02:39:19;99804.75;;;17.08;96.30
7668;BME280;3876;42.204;24.686;2023-09-19T02:41:45;99812.38;;;17.11;96.52
7668;BME280;3876;42.204;24.686;2023-09-19T02:44:12;99815.84;;;17.10;96.21
7668;BME280;3876;42.204;24.686;2023-09-19T02:46:39;99814.19;;;17.09;96.59
7668;BME280;3876;42.204;24.686;2023-09-19T02:49:07;99817.06;;;17.03;96.42
7668;BME280;3876;42.204;24.686;2023-09-19T02:51:34;99812.03;;;17.00;96.46
7668;BME280;3876;42.204;24.686;2023-09-19T02:54:02;99808.66;;;16.99;96.64
7668;BME280;3876;42.204;24.686;2023-09-19T02:56:29;99814.63;;;17.00;96.67
7668;BME280;3876;42.204;24.686;2023-09-19T02:58:57;99797.75;;;16.93;96.38
7668;BME280;3876;42.204;24.686;2023-09-19T03:01:25;99813.13;;;16.96;96.40
7668;BME280;3876;42.204;24.686;2023-09-19T03:03:53;99801.94;;;16.95;96.63
7668;BME280;3876;42.204;24.686;2023-09-19T03:06:20;99799.72;;;16.88;96.48
7668;BME280;3876;42.204;24.686;2023-09-19T03:08:48;99812.44;;;16.92;96.40
7668;BME280;3876;42.204;24.686;2023-09-19T03:11:18;99806.41;;;16.92;96.38
7668;BME280;3876;42.204;24.686;2023-09-19T03:13:51;99804.75;;;16.91;96.49
7668;BME280;3876;42.204;24.686;2023-09-19T03:16:17;99811.75;;;16.89;96.30
7668;BME280;3876;42.204;24.686;2023-09-19T03:18:47;99790.03;;;16.74;96.21
7668;BME280;3876;42.204;24.686;2023-09-19T03:21:14;99803.34;;;16.84;96.46
7668;BME280;3876;42.204;24.686;2023-09-19T03:23:41;99809.69;;;16.78;96.72
7668;BME280;3876;42.204;24.686;2023-09-19T03:26:10;99808.16;;;16.74;96.73
7668;BME280;3876;42.204;24.686;2023-09-19T03:28:39;99810.03;;;16.70;96.29
7668;BME280;3876;42.204;24.686;2023-09-19T03:31:06;99804.13;;;16.68;96.32
7668;BME280;3876;42.204;24.686;2023-09-19T03:33:33;99806.16;;;16.62;96.41
7668;BME280;3876;42.204;24.686;2023-09-19T03:36:00;99811.44;;;16.60;96.07
7668;BME280;3876;42.204;24.686;2023-09-19T03:38:30;99803.72;;;16.59;96.06
7668;BME280;3876;42.204;24.686;2023-09-19T03:40:56;99801.31;;;16.54;96.16
7668;BME280;3876;42.204;24.686;2023-09-19T03:43:23;99803.16;;;16.52;96.24
7668;BME280;3876;42.204;24.686;2023-09-19T03:45:51;99810.06;;;16.52;96.04
7668;BME280;3876;42.204;24.686;2023-09-19T03:48:19;99806.78;;;16.48;96.13
7668;BME280;3876;42.204;24.686;2023-09-19T03:50:47;99799.31;;;16.42;96.01
7668;BME280;3876;42.204;24.686;2023-09-19T03:53:13;99810.72;;;16.38;96.32
7668;BME280;3876;42.204;24.686;2023-09-19T03:55:40;99799.00;;;16.31;96.43
7668;BME280;3876;42.204;24.686;2023-09-19T03:58:08;99804.47;;;16.25;96.72
7668;BME280;3876;42.204;24.686;2023-09-19T04:00:35;99811.59;;;16.20;97.34
7668;BME280;3876;42.204;24.686;2023-09-19T04:03:04;99809.09;;;16.18;97.94
7668;BME280;3876;42.204;24.686;2023-09-19T04:05:31;99803.06;;;16.18;98.23
7668;BME280;3876;42.204;24.686;2023-09-19T04:07:59;99804.81;;;16.17;98.33
7668;BME280;3876;42.204;24.686;2023-09-19T04:10:25;99815.22;;;16.16;98.50
7668;BME280;3876;42.204;24.686;2023-09-19T04:12:53;99804.88;;;16.16;98.62
7668;BME280;3876;42.204;24.686;2023-09-19T04:15:20;99806.84;;;16.11;99.06
7668;BME280;3876;42.204;24.686;2023-09-19T04:17:48;99814.75;;;16.08;99.50
7668;BME280;3876;42.204;24.686;2023-09-19T04:20:16;99805.31;;;16.07;99.70
7668;BME280;3876;42.204;24.686;2023-09-19T04:22:45;99804.31;;;16.09;100.00
7668;BME280;3876;42.204;24.686;2023-09-19T04:25:11;99804.25;;;16.11;100.00
7668;BME280;3876;42.204;24.686;2023-09-19T04:27:38;99803.50;;;16.09;100.00
7668;BME280;3876;42.204;24.686;2023-09-19T04:30:07;99808.53;;;16.12;100.00
7668;BME280;3876;42.204;24.686;2023-09-19T04:32:35;99786.72;;;15.99;100.00
7668;BME280;3876;42.204;24.686;2023-09-19T04:35:04;99815.16;;;16.17;100.00
7668;BME280;3876;42.204;24.686;2023-09-19T04:37:36;99816.91;;;16.17;100.00
7668;BME280;3876;42.204;24.686;2023-09-19T04:40:06;99798.19;;;16.12;100.00
7668;BME280;3876;42.204;24.686;2023-09-19T04:42:38;99814.94;;;16.22;100.00
7668;BME280;3876;42.204;24.686;2023-09-19T04:45:06;99803.47;;;16.27;100.00
7668;BME280;3876;42.204;24.686;2023-09-19T04:47:34;99808.41;;;16.32;100.00
7668;BME280;3876;42.204;24.686;2023-09-19T04:50:06;99808.00;;;16.41;100.00
7668;BME280;3876;42.204;24.686;2023-09-19T04:52:39;99805.72;;;16.52;100.00
7668;BME280;3876;42.204;24.686;2023-09-19T04:55:08;99802.81;;;16.60;100.00
7668;BME280;3876;42.204;24.686;2023-09-19T04:57:36;99802.28;;;16.70;100.00
7668;BME280;3876;42.204;24.686;2023-09-19T05:00:05;99796.97;;;16.73;100.00
7668;BME280;3876;42.204;24.686;2023-09-19T05:02:38;99801.25;;;16.92;100.00
7668;BME280;3876;42.204;24.686;2023-09-19T05:05:06;99805.06;;;17.02;100.00
7668;BME280;3876;42.204;24.686;2023-09-19T05:07:33;99789.03;;;17.11;100.00
7668;BME280;3876;42.204;24.686;2023-09-19T05:10:02;99816.28;;;17.35;100.00
7668;BME280;3876;42.204;24.686;2023-09-19T05:12:31;99812.94;;;17.50;99.90
7668;BME280;3876;42.204;24.686;2023-09-19T05:14:58;99814.56;;;17.68;99.77
7668;BME280;3876;42.204;24.686;2023-09-19T05:17:24;99811.16;;;17.83;98.79
7668;BME280;3876;42.204;24.686;2023-09-19T05:19:51;99816.28;;;18.01;97.54
7668;BME280;3876;42.204;24.686;2023-09-19T05:22:18;99812.72;;;18.19;97.36
7668;BME280;3876;42.204;24.686;2023-09-19T05:24:45;99815.63;;;18.44;96.30
7668;BME280;3876;42.204;24.686;2023-09-19T05:27:15;99806.09;;;18.60;95.53
7668;BME280;3876;42.204;24.686;2023-09-19T05:29:42;99815.56;;;18.91;94.46
7668;BME280;3876;42.204;24.686;2023-09-19T05:32:09;99821.19;;;19.13;93.54
7668;BME280;3876;42.204;24.686;2023-09-19T05:34:37;99825.03;;;19.36;93.50
7668;BME280;3876;42.204;24.686;2023-09-19T05:37:04;99827.44;;;19.55;92.61
7668;BME280;3876;42.204;24.686;2023-09-19T05:39:32;99830.59;;;19.74;91.69
7668;BME280;3876;42.204;24.686;2023-09-19T05:41:59;99833.34;;;19.99;90.82
7668;BME280;3876;42.204;24.686;2023-09-19T05:44:28;99829.91;;;20.13;89.36
7668;BME280;3876;42.204;24.686;2023-09-19T05:46:54;99832.28;;;20.30;88.80
7668;BME280;3876;42.204;24.686;2023-09-19T05:49:23;99822.97;;;20.40;88.27
7668;BME280;3876;42.204;24.686;2023-09-19T05:51:50;99818.84;;;20.50;87.97
7668;BME280;3876;42.204;24.686;2023-09-19T05:54:19;99821.53;;;20.49;87.22
7668;BME280;3876;42.204;24.686;2023-09-19T05:56:46;99795.47;;;20.49;85.98
7668;BME280;3876;42.204;24.686;2023-09-19T05:59:14;99813.91;;;20.72;85.99
7668;BME280;3876;42.204;24.686;2023-09-19T06:01:43;99812.38;;;20.82;85.90
7668;BME280;3876;42.204;24.686;2023-09-19T06:04:09;99815.84;;;20.95;86.02
7668;BME280;3876;42.204;24.686;2023-09-19T06:06:36;99813.56;;;21.04;85.03
7668;BME280;3876;42.204;24.686;2023-09-19T06:09:05;99816.53;;;21.12;85.97
7668;BME280;3876;42.204;24.686;2023-09-19T06:11:33;99818.22;;;21.25;85.48
7668;BME280;3876;42.204;24.686;2023-09-19T06:14:00;99816.97;;;21.31;84.79
7668;BME280;3876;42.204;24.686;2023-09-19T06:16:27;99819.28;;;21.35;84.69
7668;BME280;3876;42.204;24.686;2023-09-19T06:18:56;99813.84;;;21.51;84.94
7668;BME280;3876;42.204;24.686;2023-09-19T06:21:25;99813.72;;;21.65;82.73
7668;BME280;3876;42.204;24.686;2023-09-19T06:23:52;99808.81;;;21.73;83.86
7668;BME280;3876;42.204;24.686;2023-09-19T06:26:19;99808.28;;;21.93;83.41
7668;BME280;3876;42.204;24.686;2023-09-19T06:28:46;99804.47;;;22.10;82.54
7668;BME280;3876;42.204;24.686;2023-09-19T06:31:13;99802.25;;;22.17;81.78
7668;BME280;3876;42.204;24.686;2023-09-19T06:33:40;99803.50;;;22.24;82.11
7668;BME280;3876;42.204;24.686;2023-09-19T06:36:09;99800.78;;;22.25;81.39
7668;BME280;3876;42.204;24.686;2023-09-19T06:38:36;99799.31;;;22.21;81.11
7668;BME280;3876;42.204;24.686;2023-09-19T06:41:04;99794.72;;;22.25;81.14
7668;BME280;3876;42.204;24.686;2023-09-19T06:43:32;99789.06;;;22.31;81.73
7668;BME280;3876;42.204;24.686;2023-09-19T06:46:00;99791.59;;;22.43;79.82
7668;BME280;3876;42.204;24.686;2023-09-19T06:48:28;99793.38;;;22.43;80.12
7668;BME280;3876;42.204;24.686;2023-09-19T06:50:55;99788.16;;;22.43;80.82
7668;BME280;3876;42.204;24.686;2023-09-19T06:53:25;99793.16;;;22.46;79.65
7668;BME280;3876;42.204;24.686;2023-09-19T06:55:52;99795.22;;;22.54;80.87
7668;BME280;3876;42.204;24.686;2023-09-19T06:58:19;99796.88;;;22.67;79.79
7668;BME280;3876;42.204;24.686;2023-09-19T07:00:46;99796.63;;;22.70;79.80
7668;BME280;3876;42.204;24.686;2023-09-19T07:03:13;99793.34;;;22.79;79.74
7668;BME280;3876;42.204;24.686;2023-09-19T07:05:41;99794.03;;;22.81;78.15
7668;BME280;3876;42.204;24.686;2023-09-19T07:08:09;99796.22;;;22.87;77.22
7668;BME280;3876;42.204;24.686;2023-09-19T07:10:39;99792.94;;;22.96;77.71
7668;BME280;3876;42.204;24.686;2023-09-19T07:13:13;99789.81;;;22.91;78.38
7668;BME280;3876;42.204;24.686;2023-09-19T07:15:42;99794.47;;;22.99;78.18
7668;BME280;3876;42.204;24.686;2023-09-19T07:18:12;99795.56;;;23.08;75.63
7668;BME280;3876;42.204;24.686;2023-09-19T07:20:40;99789.41;;;23.20;76.14
7668;BME280;3876;42.204;24.686;2023-09-19T07:23:10;99761.59;;;23.19;76.03
7668;BME280;3876;42.204;24.686;2023-09-19T07:25:40;99791.13;;;23.54;73.96
7668;BME280;3876;42.204;24.686;2023-09-19T07:28:07;99792.06;;;23.75;74.25
7668;BME280;3876;42.204;24.686;2023-09-19T07:30:36;99796.47;;;23.97;73.16
7668;BME280;3876;42.204;24.686;2023-09-19T07:33:04;99793.94;;;24.18;71.53
7668;BME280;3876;42.204;24.686;2023-09-19T07:35:32;99785.09;;;24.30;70.34
7668;BME280;3876;42.204;24.686;2023-09-19T07:37:59;99783.16;;;24.43;70.95
7668;BME280;3876;42.204;24.686;2023-09-19T07:40:28;99784.03;;;24.64;68.32
7668;BME280;3876;42.204;24.686;2023-09-19T07:42:56;99779.31;;;24.79;66.63
7668;BME280;3876;42.204;24.686;2023-09-19T07:45:27;99772.00;;;24.93;66.24
7668;BME280;3876;42.204;24.686;2023-09-19T07:47:55;99766.69;;;25.04;66.67
7668;BME280;3876;42.204;24.686;2023-09-19T07:50:22;99756.91;;;25.06;69.63
7668;BME280;3876;42.204;24.686;2023-09-19T07:52:50;99756.19;;;25.25;67.81
7668;BME280;3876;42.204;24.686;2023-09-19T07:55:18;99758.78;;;25.46;64.24
7668;BME280;3876;42.204;24.686;2023-09-19T07:57:48;99751.78;;;25.56;62.89
7668;BME280;3876;42.204;24.686;2023-09-19T08:00:16;99751.59;;;25.48;62.69
7668;BME280;3876;42.204;24.686;2023-09-19T08:02:43;99743.75;;;25.27;62.15
7668;BME280;3876;42.204;24.686;2023-09-19T08:05:11;99749.00;;;25.27;62.29
7668;BME280;3876;42.204;24.686;2023-09-19T08:07:41;99745.72;;;25.35;61.28
7668;BME280;3876;42.204;24.686;2023-09-19T08:10:09;99736.72;;;25.58;62.28
7668;BME280;3876;42.204;24.686;2023-09-19T08:12:38;99746.13;;;25.61;60.27
7668;BME280;3876;42.204;24.686;2023-09-19T08:15:12;99741.44;;;25.64;61.11
7668;BME280;3876;42.204;24.686;2023-09-19T08:17:40;99744.75;;;25.66;60.63
7668;BME280;3876;42.204;24.686;2023-09-19T08:20:08;99738.63;;;25.56;60.05
7668;BME280;3876;42.204;24.686;2023-09-19T08:22:42;99744.09;;;25.43;61.33
7668;BME280;3876;42.204;24.686;2023-09-19T08:25:12;99745.72;;;25.55;60.68
7668;BME280;3876;42.204;24.686;2023-09-19T08:27:38;99743.72;;;25.78;60.08
7668;BME280;3876;42.204;24.686;2023-09-19T08:30:06;99741.44;;;25.64;59.92
7668;BME280;3876;42.204;24.686;2023-09-19T08:32:33;99731.22;;;25.61;60.84
7668;BME280;3876;42.204;24.686;2023-09-19T08:35:01;99728.50;;;25.42;61.44
7668;BME280;3876;42.204;24.686;2023-09-19T08:37:29;99721.75;;;25.49;61.38
7668;BME280;3876;42.204;24.686;2023-09-19T08:39:56;99716.56;;;25.58;63.05
7668;BME280;3876;42.204;24.686;2023-09-19T08:42:23;99709.72;;;25.86;60.18
7668;BME280;3876;42.204;24.686;2023-09-19T08:44:51;99714.72;;;26.08;63.40
7668;BME280;3876;42.204;24.686;2023-09-19T08:47:31;99677.34;;;25.95;62.36
7668;BME280;3876;42.204;24.686;2023-09-19T08:50:06;99709.78;;;26.44;59.92
7668;BME280;3876;42.204;24.686;2023-09-19T08:52:41;99706.03;;;26.56;57.21
7668;BME280;3876;42.204;24.686;2023-09-19T08:55:12;99713.22;;;26.63;56.91
7668;BME280;3876;42.204;24.686;2023-09-19T08:57:45;99708.66;;;26.75;56.99
7668;BME280;3876;42.204;24.686;2023-09-19T09:00:15;99708.41;;;26.59;55.97
7668;BME280;3876;42.204;24.686;2023-09-19T09:02:44;99705.19;;;26.65;59.86
7668;BME280;3876;42.204;24.686;2023-09-19T09:05:14;99710.84;;;26.70;57.31
7668;BME280;3876;42.204;24.686;2023-09-19T09:07:42;99693.38;;;26.79;58.53
7668;BME280;3876;42.204;24.686;2023-09-19T09:10:10;99692.84;;;26.94;54.53
7668;BME280;3876;42.204;24.686;2023-09-19T09:12:37;99696.41;;;27.03;55.84
7668;BME280;3876;42.204;24.686;2023-09-19T09:15:05;99684.00;;;26.86;53.73
7668;BME280;3876;42.204;24.686;2023-09-19T09:17:34;99688.16;;;26.69;55.21
7668;BME280;3876;42.204;24.686;2023-09-19T09:20:01;99689.94;;;26.97;54.42
7668;BME280;3876;42.204;24.686;2023-09-19T09:22:31;99678.91;;;27.11;52.55
7668;BME280;3876;42.204;24.686;2023-09-19T09:24:59;99684.13;;;26.75;52.49
7668;BME280;3876;42.204;24.686;2023-09-19T09:27:29;99674.09;;;26.41;54.29
7668;BME280;3876;42.204;24.686;2023-09-19T09:29:56;99673.38;;;26.49;55.31
7668;BME280;3876;42.204;24.686;2023-09-19T09:32:24;99668.50;;;26.73;55.18
7668;BME280;3876;42.204;24.686;2023-09-19T09:34:52;99669.72;;;26.88;55.77
7668;BME280;3876;42.204;24.686;2023-09-19T09:37:21;99671.25;;;26.91;53.29
7668;BME280;3876;42.204;24.686;2023-09-19T09:39:53;99661.97;;;26.77;53.96
7668;BME280;3876;42.204;24.686;2023-09-19T09:42:32;99660.53;;;26.46;53.78
7668;BME280;3876;42.204;24.686;2023-09-19T09:45:14;99656.38;;;26.24;54.32
7668;BME280;3876;42.204;24.686;2023-09-19T09:47:42;99653.91;;;26.23;53.75
7668;BME280;3876;42.204;24.686;2023-09-19T09:50:26;99647.63;;;26.04;53.72
7668;BME280;3876;42.204;24.686;2023-09-19T09:53:19;99649.97;;;26.07;55.95
7668;BME280;3876;42.204;24.686;2023-09-19T09:56:04;99643.94;;;26.26;55.22
7668;BME280;3876;42.204;24.686;2023-09-19T09:58:32;99642.41;;;26.24;55.29
7668;BME280;3876;42.204;24.686;2023-09-19T10:01:01;99643.31;;;26.61;54.75
7668;BME280;3876;42.204;24.686;2023-09-19T10:03:35;99640.53;;;26.82;55.89
7668;BME280;3876;42.204;24.686;2023-09-19T10:06:07;99645.41;;;27.13;54.11
7668;BME280;3876;42.204;24.686;2023-09-19T10:09:00;99647.00;;;27.24;51.23
7668;BME280;3876;42.204;24.686;2023-09-19T10:11:41;99642.63;;;27.15;51.56
7668;BME280;3876;42.204;24.686;2023-09-19T10:14:10;99641.34;;;26.73;52.06
7668;BME280;3876;42.204;24.686;2023-09-19T10:16:40;99639.72;;;26.72;56.60
7668;BME280;3876;42.204;24.686;2023-09-19T10:19:08;99628.31;;;26.90;52.95
7668;BME280;3876;42.204;24.686;2023-09-19T10:21:36;99632.09;;;27.15;51.00
7668;BME280;3876;42.204;24.686;2023-09-19T10:24:05;99625.22;;;27.32;53.58
7668;BME280;3876;42.204;24.686;2023-09-19T10:26:34;99622.78;;;27.48;51.92
7668;BME280;3876;42.204;24.686;2023-09-19T10:29:06;99620.19;;;27.66;52.00
7668;BME280;3876;42.204;24.686;2023-09-19T10:31:35;99621.06;;;27.56;50.08
7668;BME280;3876;42.204;24.686;2023-09-19T10:34:06;99603.09;;;27.70;50.65
7668;BME280;3876;42.204;24.686;2023-09-19T10:36:36;99607.75;;;27.58;49.83
7668;BME280;3876;42.204;24.686;2023-09-19T10:39:06;99603.19;;;27.33;51.08
7668;BME280;3876;42.204;24.686;2023-09-19T10:41:34;99593.91;;;27.29;50.53
7668;BME280;3876;42.204;24.686;2023-09-19T10:44:04;99590.59;;;26.99;50.23
7668;BME280;3876;42.204;24.686;2023-09-19T10:46:32;99590.91;;;27.24;50.74
7668;BME280;3876;42.204;24.686;2023-09-19T10:48:59;99594.81;;;27.37;50.79
7668;BME280;3876;42.204;24.686;2023-09-19T10:51:30;99562.53;;;27.45;53.55
7668;BME280;3876;42.204;24.686;2023-09-19T10:54:02;99581.13;;;27.61;50.35
7668;BME280;3876;42.204;24.686;2023-09-19T10:56:34;99575.63;;;27.72;50.00
7668;BME280;3876;42.204;24.686;2023-09-19T10:59:07;99575.09;;;27.86;51.74
7668;BME280;3876;42.204;24.686;2023-09-19T11:01:45;99570.56;;;27.96;50.33
7668;BME280;3876;42.204;24.686;2023-09-19T11:04:24;99547.59;;;27.89;48.85
7668;BME280;3876;42.204;24.686;2023-09-19T11:07:02;99565.16;;;28.15;48.95
7668;BME280;3876;42.204;24.686;2023-09-19T11:09:49;99557.97;;;28.26;51.15
7668;BME280;3876;42.204;24.686;2023-09-19T11:12:49;99556.09;;;28.18;51.82
7668;BME280;3876;42.204;24.686;2023-09-19T11:21:52;99543.44;;;28.22;51.22
7668;BME280;3876;42.204;24.686;2023-09-19T11:24:32;99540.88;;;28.30;48.87
7668;BME280;3876;42.204;24.686;2023-09-19T11:27:12;99536.56;;;28.29;47.03
7668;BME280;3876;42.204;24.686;2023-09-19T11:29:40;99531.47;;;28.27;48.31
7668;BME280;3876;42.204;24.686;2023-09-19T11:32:07;99523.03;;;28.24;49.27
7668;BME280;3876;42.204;24.686;2023-09-19T11:34:42;99518.72;;;28.23;49.09
7668;BME280;3876;42.204;24.686;2023-09-19T11:40:29;99524.53;;;28.26;48.28
7668;BME280;3876;42.204;24.686;2023-09-19T11:42:56;99506.09;;;28.34;49.34
7668;BME280;3876;42.204;24.686;2023-09-19T11:48:31;99503.53;;;28.50;48.31
7668;BME280;3876;42.204;24.686;2023-09-19T11:50:58;99510.22;;;28.62;47.81
7668;BME280;3876;42.204;24.686;2023-09-19T11:53:33;99504.66;;;28.65;47.41
7668;BME280;3876;42.204;24.686;2023-09-19T11:56:05;99496.56;;;28.67;47.85
7668;BME280;3876;42.204;24.686;2023-09-19T11:58:36;99492.53;;;28.55;46.25
7668;BME280;3876;42.204;24.686;2023-09-19T12:01:05;99491.50;;;28.48;47.52
7668;BME280;3876;42.204;24.686;2023-09-19T12:03:36;99487.44;;;28.61;49.46
7668;BME280;3876;42.204;24.686;2023-09-19T12:06:11;99480.72;;;28.67;46.37
7668;BME280;3876;42.204;24.686;2023-09-19T12:08:41;99482.50;;;28.58;45.22
7668;BME280;3876;42.204;24.686;2023-09-19T12:11:14;99480.72;;;28.67;46.09
7668;BME280;3876;42.204;24.686;2023-09-19T12:13:43;99475.50;;;28.75;46.73
7668;BME280;3876;42.204;24.686;2023-09-19T12:16:13;99472.22;;;28.81;46.82
7668;BME280;3876;42.204;24.686;2023-09-19T12:18:41;99471.56;;;28.87;48.76
7668;BME280;3876;42.204;24.686;2023-09-19T12:21:21;99472.91;;;28.91;48.05
7668;BME280;3876;42.204;24.686;2023-09-19T12:24:06;99467.63;;;28.99;46.45
7668;BME280;3876;42.204;24.686;2023-09-19T12:26:42;99469.44;;;28.99;44.87
7668;BME280;3876;42.204;24.686;2023-09-19T12:29:14;99470.59;;;28.96;44.54
7668;BME280;3876;42.204;24.686;2023-09-19T12:31:53;99464.59;;;28.70;46.54
7668;BME280;3876;42.204;24.686;2023-09-19T12:34:24;99449.75;;;28.69;45.56
7668;BME280;3876;42.204;24.686;2023-09-19T12:37:09;99465.63;;;28.85;45.94
7668;BME280;3876;42.204;24.686;2023-09-19T12:39:42;99459.84;;;28.82;45.86
7668;BME280;3876;42.204;24.686;2023-09-19T12:42:16;99456.00;;;28.68;45.75
7668;BME280;3876;42.204;24.686;2023-09-19T12:44:45;99452.00;;;28.64;46.41
7668;BME280;3876;42.204;24.686;2023-09-19T12:47:13;99456.31;;;28.65;46.35
7668;BME280;3876;42.204;24.686;2023-09-19T12:50:10;99449.75;;;28.69;43.90
7668;BME280;3876;42.204;24.686;2023-09-19T12:52:41;99446.09;;;28.70;45.21
7668;BME280;3876;42.204;24.686;2023-09-19T12:55:19;99441.53;;;28.72;45.24
7668;BME280;3876;42.204;24.686;2023-09-19T12:57:57;99446.81;;;28.72;45.64
7668;BME280;3876;42.204;24.686;2023-09-19T13:00:32;99444.09;;;28.64;45.80
7668;BME280;3876;42.204;24.686;2023-09-19T13:03:11;99440.78;;;28.62;45.54
7668;BME280;3876;42.204;24.686;2023-09-19T13:05:47;99443.47;;;28.70;45.81
7668;BME280;3876;42.204;24.686;2023-09-19T13:08:18;99437.56;;;28.76;45.08
7668;BME280;3876;42.204;24.686;2023-09-19T13:11:09;99441.56;;;28.88;44.54
7668;BME280;3876;42.204;24.686;2023-09-19T13:13:40;99436.47;;;28.95;43.31
7668;BME280;3876;42.204;24.686;2023-09-19T13:16:09;99431.00;;;28.88;44.01
7668;BME280;3876;42.204;24.686;2023-09-19T13:18:47;99426.72;;;28.87;44.19
7668;BME280;3876;42.204;24.686;2023-09-19T13:21:20;99428.34;;;28.80;43.81
7668;BME280;3876;42.204;24.686;2023-09-19T13:23:54;99422.06;;;28.89;43.73
7668;BME280;3876;42.204;24.686;2023-09-19T13:26:24;99421.09;;;28.98;45.58
7668;BME280;3876;42.204;24.686;2023-09-19T13:28:52;99419.47;;;29.05;43.26
7668;BME280;3876;42.204;24.686;2023-09-19T13:31:19;99429.69;;;29.08;43.93
7668;BME280;3876;42.204;24.686;2023-09-19T13:33:48;99417.19;;;29.10;43.74
7668;BME280;3876;42.204;24.686;2023-09-19T13:36:15;99415.53;;;29.17;43.04
7668;BME280;3876;42.204;24.686;2023-09-19T13:38:44;99415.22;;;29.21;43.27